sensor_id;sensor_type;location;lat;lon;timestamp;pressure;altitude;pressure_sealevel;temperature;humidity
23574;BME280;11965;53.640;10.050;2024-03-23T00:54:55;100638.41;;;6.71;100.00
23574;BME280;11965;53.640;10.050;2024-03-23T00:57:21;100637.91;;;6.67;100.00
23574;BME280;11965;53.640;10.050;2024-03-23T00:59:48;100633.59;;;6.64;100.00
23574;BME280;11965;53.640;10.050;2024-03-23T01:02:14;100628.59;;;6.68;100.00
23574;BME280;11965;53.640;10.050;2024-03-23T01:04:41;100622.56;;;6.73;100.00
23574;BME280;11965;53.640;10.050;2024-03-23T01:07:07;100619.47;;;6.68;100.00
23574;BME280;11965;53.640;10.050;2024-03-23T01:09:34;100610.38;;;6.59;100.00
23574;BME280;11965;53.640;10.050;2024-03-23T01:12:01;100606.09;;;6.40;100.00
23574;BME280;11965;53.640;10.050;2024-03-23T01:14:28;100611.63;;;6.40;100.00
23574;BME280;11965;53.640;10.050;2024-03-23T01:16:54;100601.47;;;6.32;100.00
23574;BME280;11965;53.640;10.050;2024-03-23T01:19:21;100603.16;;;6.33;100.00
23574;BME280;11965;53.640;10.050;2024-03-23T01:21:47;100607.13;;;6.39;100.00
23574;BME280;11965;53.640;10.050;2024-03-23T01:24:14;100602.16;;;6.26;100.00
23574;BME280;11965;53.640;10.050;2024-03-23T01:26:40;100600.41;;;6.33;100.00
23574;BME280;11965;53.640;10.050;2024-03-23T01:29:09;100590.59;;;6.39;100.00
23574;BME280;11965;53.640;10.050;2024-03-23T01:31:35;100581.47;;;6.55;100.00
23574;BME280;11965;53.640;10.050;2024-03-23T01:34:01;100582.69;;;6.44;100.00
23574;BME280;11965;53.640;10.050;2024-03-23T01:36:28;100583.91;;;6.25;100.00
23574;BME280;11965;53.640;10.050;2024-03-23T01:38:55;100593.03;;;6.26;100.00
23574;BME280;11965;53.640;10.050;2024-03-23T01:41:21;100585.81;;;6.08;100.00
23574;BME280;11965;53.640;10.050;2024-03-23T01:43:48;100569.31;;;6.00;100.00
23574;BME280;11965;53.640;10.050;2024-03-23T01:46:16;100571.84;;;5.85;100.00
23574;BME280;11965;53.640;10.050;2024-03-23T01:48:43;100576.38;;;6.03;100.00
23574;BME280;11965;53.640;10.050;2024-03-23T01:51:09;100569.47;;;6.07;100.00
23574;BME280;11965;53.640;10.050;2024-03-23T01:53:37;100559.66;;;6.20;100.00
23574;BME280;11965;53.640;10.050;2024-03-23T01:56:03;100564.16;;;5.97;100.00
23574;BME280;11965;53.640;10.050;2024-03-23T01:58:30;100551.72;;;5.93;100.00
23574;BME280;11965;53.640;10.050;2024-03-23T02:00:57;100553.78;;;5.91;100.00
23574;BME280;11965;53.640;10.050;2024-03-23T02:03:27;100551.38;;;5.80;100.00
23574;BME280;11965;53.640;10.050;2024-03-23T02:05:54;100556.19;;;5.69;100.00
23574;BME280;11965;53.640;10.050;2024-03-23T02:08:23;100547.41;;;5.58;100.00
23574;BME280;11965;53.640;10.050;2024-03-23T02:10:49;100546.91;;;5.54;100.00
23574;BME280;11965;53.640;10.050;2024-03-23T02:13:18;100535.72;;;5.56;100.00
23574;BME280;11965;53.640;10.050;2024-03-23T02:15:45;100537.63;;;5.63;100.00
23574;BME280;11965;53.640;10.050;2024-03-23T02:18:13;100536.28;;;5.92;100.00
23574;BME280;11965;53.640;10.050;2024-03-23T02:20:40;100523.53;;;5.74;100.00
23574;BME280;11965;53.640;10.050;2024-03-23T02:23:14;100529.22;;;5.73;100.00
23574;BME280;11965;53.640;10.050;2024-03-23T02:25:40;100520.63;;;5.60;100.00
23574;BME280;11965;53.640;10.050;2024-03-23T02:28:07;100513.91;;;5.46;100.00
23574;BME280;11965;53.640;10.050;2024-03-23T02:30:34;100519.75;;;5.51;100.00
23574;BME280;11965;53.640;10.050;2024-03-23T02:33:01;100520.41;;;5.37;100.00
23574;BME280;11965;53.640;10.050;2024-03-23T02:35:27;100514.38;;;5.25;100.00
23574;BME280;11965;53.640;10.050;2024-03-23T02:37:54;100513.53;;;5.24;100.00
23574;BME280;11965;53.640;10.050;2024-03-23T02:40:23;100505.25;;;5.16;100.00
23574;BME280;11965;53.640;10.050;2024-03-23T02:42:51;100508.03;;;5.24;100.00
23574;BME280;11965;53.640;10.050;2024-03-23T02:45:17;100510.44;;;5.27;100.00
23574;BME280;11965;53.640;10.050;2024-03-23T02:47:44;100506.94;;;5.09;100.00
23574;BME280;11965;53.640;10.050;2024-03-23T02:50:10;100509.19;;;5.05;100.00
23574;BME280;11965;53.640;10.050;2024-03-23T02:52:37;100490.44;;;5.01;100.00
23574;BME280;11965;53.640;10.050;2024-03-23T02:55:04;100507.78;;;5.01;100.00
23574;BME280;11965;53.640;10.050;2024-03-23T02:57:32;100506.94;;;5.01;100.00
23574;BME280;11965;53.640;10.050;2024-03-23T02:59:58;100503.81;;;4.96;100.00
23574;BME280;11965;53.640;10.050;2024-03-23T03:02:25;100501.22;;;4.94;100.00
23574;BME280;11965;53.640;10.050;2024-03-23T03:04:51;100503.69;;;5.05;100.00
23574;BME280;11965;53.640;10.050;2024-03-23T03:07:18;100497.47;;;4.95;100.00
23574;BME280;11965;53.640;10.050;2024-03-23T03:09:44;100490.06;;;4.87;100.00
23574;BME280;11965;53.640;10.050;2024-03-23T03:12:11;100487.66;;;4.84;100.00
23574;BME280;11965;53.640;10.050;2024-03-23T03:14:38;100477.00;;;4.81;100.00
23574;BME280;11965;53.640;10.050;2024-03-23T03:17:05;100469.63;;;4.82;100.00
23574;BME280;11965;53.640;10.050;2024-03-23T03:19:31;100466.38;;;4.78;100.00
23574;BME280;11965;53.640;10.050;2024-03-23T03:21:58;100459.13;;;4.77;100.00
23574;BME280;11965;53.640;10.050;2024-03-23T03:24:24;100470.47;;;4.82;100.00
23574;BME280;11965;53.640;10.050;2024-03-23T03:26:51;100467.91;;;4.81;100.00
23574;BME280;11965;53.640;10.050;2024-03-23T03:29:17;100467.59;;;4.84;100.00
23574;BME280;11965;53.640;10.050;2024-03-23T03:31:46;100468.22;;;4.78;100.00
23574;BME280;11965;53.640;10.050;2024-03-23T03:34:12;100465.81;;;4.75;100.00
23574;BME280;11965;53.640;10.050;2024-03-23T03:36:39;100456.38;;;4.77;100.00
23574;BME280;11965;53.640;10.050;2024-03-23T03:39:05;100456.56;;;4.76;100.00
23574;BME280;11965;53.640;10.050;2024-03-23T03:41:32;100451.25;;;4.74;100.00
23574;BME280;11965;53.640;10.050;2024-03-23T03:43:58;100449.19;;;4.76;100.00
23574;BME280;11965;53.640;10.050;2024-03-23T03:46:27;100447.47;;;4.83;100.00
23574;BME280;11965;53.640;10.050;2024-03-23T03:48:55;100447.81;;;4.80;100.00
23574;BME280;11965;53.640;10.050;2024-03-23T03:51:22;100436.16;;;4.78;100.00
23574;BME280;11965;53.640;10.050;2024-03-23T03:53:48;100437.34;;;4.76;100.00
23574;BME280;11965;53.640;10.050;2024-03-23T03:56:15;100445.22;;;4.71;100.00
23574;BME280;11965;53.640;10.050;2024-03-23T03:58:41;100431.16;;;4.74;100.00
23574;BME280;11965;53.640;10.050;2024-03-23T04:01:08;100417.94;;;4.69;100.00
23574;BME280;11965;53.640;10.050;2024-03-23T04:03:34;100418.28;;;4.66;100.00
23574;BME280;11965;53.640;10.050;2024-03-23T04:06:03;100419.34;;;4.73;100.00
23574;BME280;11965;53.640;10.050;2024-03-23T04:08:29;100420.16;;;4.65;100.00
23574;BME280;11965;53.640;10.050;2024-03-23T04:10:56;100413.81;;;4.65;100.00
23574;BME280;11965;53.640;10.050;2024-03-23T04:13:22;100402.63;;;4.58;100.00
23574;BME280;11965;53.640;10.050;2024-03-23T04:15:49;100415.88;;;4.63;100.00
23574;BME280;11965;53.640;10.050;2024-03-23T04:18:19;100414.13;;;4.62;100.00
23574;BME280;11965;53.640;10.050;2024-03-23T04:20:46;100417.06;;;4.60;100.00
23574;BME280;11965;53.640;10.050;2024-03-23T04:23:13;100414.09;;;4.54;100.00
23574;BME280;11965;53.640;10.050;2024-03-23T04:25:40;100409.81;;;4.51;100.00
23574;BME280;11965;53.640;10.050;2024-03-23T04:28:06;100410.69;;;4.52;100.00
23574;BME280;11965;53.640;10.050;2024-03-23T04:30:34;100407.06;;;4.51;100.00
23574;BME280;11965;53.640;10.050;2024-03-23T04:32:59;100393.69;;;4.48;100.00
23574;BME280;11965;53.640;10.050;2024-03-23T04:35:26;100390.94;;;4.48;100.00
23574;BME280;11965;53.640;10.050;2024-03-23T04:37:53;100381.88;;;4.56;100.00
23574;BME280;11965;53.640;10.050;2024-03-23T04:40:22;100399.38;;;4.55;100.00
23574;BME280;11965;53.640;10.050;2024-03-23T04:42:49;100417.72;;;4.54;100.00
23574;BME280;11965;53.640;10.050;2024-03-23T04:45:16;100422.34;;;4.54;100.00
23574;BME280;11965;53.640;10.050;2024-03-23T04:47:43;100423.19;;;4.46;100.00
23574;BME280;11965;53.640;10.050;2024-03-23T04:50:10;100425.56;;;4.41;100.00
23574;BME280;11965;53.640;10.050;2024-03-23T04:52:37;100417.13;;;4.34;100.00
23574;BME280;11965;53.640;10.050;2024-03-23T04:55:05;100430.34;;;4.39;100.00
23574;BME280;11965;53.640;10.050;2024-03-23T04:57:33;100423.16;;;4.38;100.00
23574;BME280;11965;53.640;10.050;2024-03-23T04:59:59;100422.13;;;4.39;100.00
23574;BME280;11965;53.640;10.050;2024-03-23T05:02:27;100402.56;;;4.34;100.00
23574;BME280;11965;53.640;10.050;2024-03-23T05:04:54;100396.34;;;4.32;100.00
23574;BME280;11965;53.640;10.050;2024-03-23T05:07:20;100384.19;;;4.34;100.00
23574;BME280;11965;53.640;10.050;2024-03-23T05:09:47;100397.31;;;4.49;100.00
23574;BME280;11965;53.640;10.050;2024-03-23T05:12:14;100384.94;;;4.45;100.00
23574;BME280;11965;53.640;10.050;2024-03-23T05:14:42;100381.66;;;4.41;100.00
23574;BME280;11965;53.640;10.050;2024-03-23T05:17:08;100389.00;;;4.40;100.00
23574;BME280;11965;53.640;10.050;2024-03-23T05:19:35;100383.22;;;4.43;100.00
23574;BME280;11965;53.640;10.050;2024-03-23T05:22:01;100382.34;;;4.43;100.00
23574;BME280;11965;53.640;10.050;2024-03-23T05:24:28;100384.22;;;4.42;100.00
23574;BME280;11965;53.640;10.050;2024-03-23T05:26:54;100377.56;;;4.53;100.00
23574;BME280;11965;53.640;10.050;2024-03-23T05:29:24;100384.81;;;4.54;100.00
23574;BME280;11965;53.640;10.050;2024-03-23T05:31:51;100389.75;;;4.51;100.00
23574;BME280;11965;53.640;10.050;2024-03-23T05:34:18;100390.28;;;4.54;100.00
23574;BME280;11965;53.640;10.050;2024-03-23T05:36:44;100391.84;;;4.57;100.00
23574;BME280;11965;53.640;10.050;2024-03-23T05:39:11;100389.25;;;4.55;100.00
23574;BME280;11965;53.640;10.050;2024-03-23T05:41:37;100385.31;;;4.58;100.00
23574;BME280;11965;53.640;10.050;2024-03-23T05:44:04;100377.22;;;4.56;100.00
23574;BME280;11965;53.640;10.050;2024-03-23T05:46:30;100377.09;;;4.66;100.00
23574;BME280;11965;53.640;10.050;2024-03-23T05:49:01;100367.81;;;4.67;100.00
23574;BME280;11965;53.640;10.050;2024-03-23T05:51:29;100361.69;;;4.73;100.00
23574;BME280;11965;53.640;10.050;2024-03-23T05:53:54;100360.66;;;4.74;100.00
23574;BME280;11965;53.640;10.050;2024-03-23T05:56:21;100353.97;;;4.85;100.00
23574;BME280;11965;53.640;10.050;2024-03-23T05:58:47;100348.47;;;5.09;100.00
23574;BME280;11965;53.640;10.050;2024-03-23T06:01:15;100346.78;;;5.00;100.00
23574;BME280;11965;53.640;10.050;2024-03-23T06:03:40;100349.19;;;4.95;100.00
23574;BME280;11965;53.640;10.050;2024-03-23T06:06:10;100347.97;;;4.90;100.00
23574;BME280;11965;53.640;10.050;2024-03-23T06:08:38;100353.63;;;4.96;100.00
23574;BME280;11965;53.640;10.050;2024-03-23T06:11:05;100350.38;;;5.09;100.00
23574;BME280;11965;53.640;10.050;2024-03-23T06:13:31;100345.22;;;5.30;100.00
23574;BME280;11965;53.640;10.050;2024-03-23T06:15:59;100343.84;;;5.26;100.00
23574;BME280;11965;53.640;10.050;2024-03-23T06:18:25;100344.38;;;5.38;100.00
23574;BME280;11965;53.640;10.050;2024-03-23T06:20:52;100353.59;;;5.45;100.00
23574;BME280;11965;53.640;10.050;2024-03-23T06:23:19;100355.34;;;5.46;100.00
23574;BME280;11965;53.640;10.050;2024-03-23T06:25:46;100352.25;;;5.49;100.00
23574;BME280;11965;53.640;10.050;2024-03-23T06:28:12;100352.38;;;5.56;100.00
23574;BME280;11965;53.640;10.050;2024-03-23T06:30:39;100344.47;;;5.61;100.00
23574;BME280;11965;53.640;10.050;2024-03-23T06:33:05;100343.63;;;5.61;100.00
23574;BME280;11965;53.640;10.050;2024-03-23T06:35:32;100341.53;;;5.79;100.00
23574;BME280;11965;53.640;10.050;2024-03-23T06:37:58;100339.81;;;5.78;100.00
23574;BME280;11965;53.640;10.050;2024-03-23T06:40:26;100338.91;;;6.02;100.00
23574;BME280;11965;53.640;10.050;2024-03-23T06:42:52;100339.31;;;6.30;100.00
23574;BME280;11965;53.640;10.050;2024-03-23T06:45:19;100339.13;;;6.32;100.00
23574;BME280;11965;53.640;10.050;2024-03-23T06:47:48;100337.00;;;6.42;100.00
23574;BME280;11965;53.640;10.050;2024-03-23T06:50:17;100333.84;;;6.53;100.00
23574;BME280;11965;53.640;10.050;2024-03-23T06:52:43;100333.16;;;6.51;100.00
23574;BME280;11965;53.640;10.050;2024-03-23T06:55:10;100331.41;;;6.58;100.00
23574;BME280;11965;53.640;10.050;2024-03-23T06:57:37;100326.13;;;6.49;100.00
23574;BME280;11965;53.640;10.050;2024-03-23T07:00:05;100332.63;;;6.56;100.00
23574;BME280;11965;53.640;10.050;2024-03-23T07:02:35;100332.06;;;6.60;100.00
23574;BME280;11965;53.640;10.050;2024-03-23T07:05:02;100327.97;;;6.56;100.00
23574;BME280;11965;53.640;10.050;2024-03-23T07:07:28;100326.53;;;6.37;100.00
23574;BME280;11965;53.640;10.050;2024-03-23T07:09:55;100336.91;;;6.27;100.00
23574;BME280;11965;53.640;10.050;2024-03-23T07:12:21;100339.50;;;6.29;100.00
23574;BME280;11965;53.640;10.050;2024-03-23T07:14:50;100328.88;;;6.17;100.00
23574;BME280;11965;53.640;10.050;2024-03-23T07:17:15;100330.22;;;6.22;100.00
23574;BME280;11965;53.640;10.050;2024-03-23T07:19:44;100341.84;;;6.40;100.00
23574;BME280;11965;53.640;10.050;2024-03-23T07:22:09;100343.44;;;6.34;100.00
23574;BME280;11965;53.640;10.050;2024-03-23T07:24:36;100352.50;;;6.66;100.00
23574;BME280;11965;53.640;10.050;2024-03-23T07:27:05;100342.50;;;6.73;100.00
23574;BME280;11965;53.640;10.050;2024-03-23T07:29:35;100338.09;;;6.87;100.00
23574;BME280;11965;53.640;10.050;2024-03-23T07:32:03;100331.59;;;7.03;100.00
23574;BME280;11965;53.640;10.050;2024-03-23T07:34:30;100337.50;;;7.00;100.00
23574;BME280;11965;53.640;10.050;2024-03-23T07:36:56;100329.41;;;6.98;100.00
23574;BME280;11965;53.640;10.050;2024-03-23T07:39:22;100329.06;;;7.01;100.00
23574;BME280;11965;53.640;10.050;2024-03-23T07:41:48;100327.25;;;7.08;100.00
23574;BME280;11965;53.640;10.050;2024-03-23T07:44:15;100334.91;;;7.21;100.00
23574;BME280;11965;53.640;10.050;2024-03-23T07:46:41;100329.06;;;7.39;100.00
23574;BME280;11965;53.640;10.050;2024-03-23T07:49:09;100328.47;;;7.29;100.00
23574;BME280;11965;53.640;10.050;2024-03-23T07:51:35;100316.00;;;7.33;100.00
23574;BME280;11965;53.640;10.050;2024-03-23T07:54:04;100321.09;;;7.44;100.00
23574;BME280;11965;53.640;10.050;2024-03-23T07:56:30;100327.94;;;7.48;100.00
23574;BME280;11965;53.640;10.050;2024-03-23T07:58:57;100315.03;;;7.79;100.00
23574;BME280;11965;53.640;10.050;2024-03-23T08:01:23;100324.66;;;7.83;100.00
23574;BME280;11965;53.640;10.050;2024-03-23T08:03:50;100322.34;;;7.86;100.00
23574;BME280;11965;53.640;10.050;2024-03-23T08:06:19;100322.56;;;7.85;100.00
23574;BME280;11965;53.640;10.050;2024-03-23T08:08:50;100318.47;;;7.95;100.00
23574;BME280;11965;53.640;10.050;2024-03-23T08:11:17;100319.97;;;8.13;100.00
23574;BME280;11965;53.640;10.050;2024-03-23T08:13:45;100304.38;;;8.20;100.00
23574;BME280;11965;53.640;10.050;2024-03-23T08:16:11;100309.22;;;8.03;100.00
23574;BME280;11965;53.640;10.050;2024-03-23T08:18:39;100307.78;;;8.22;100.00
23574;BME280;11965;53.640;10.050;2024-03-23T08:21:06;100307.97;;;8.21;100.00
23574;BME280;11965;53.640;10.050;2024-03-23T08:23:36;100294.72;;;8.46;100.00
23574;BME280;11965;53.640;10.050;2024-03-23T08:26:04;100305.25;;;8.57;100.00
23574;BME280;11965;53.640;10.050;2024-03-23T08:28:32;100300.94;;;8.69;100.00
23574;BME280;11965;53.640;10.050;2024-03-23T08:31:01;100290.56;;;8.93;100.00
23574;BME280;11965;53.640;10.050;2024-03-23T08:33:28;100302.41;;;8.87;99.60
23574;BME280;11965;53.640;10.050;2024-03-23T08:35:55;100301.78;;;8.91;99.33
23574;BME280;11965;53.640;10.050;2024-03-23T08:38:22;100290.56;;;8.93;98.80
23574;BME280;11965;53.640;10.050;2024-03-23T08:40:56;100286.31;;;8.97;100.00
23574;BME280;11965;53.640;10.050;2024-03-23T08:43:23;100284.16;;;9.14;100.00
23574;BME280;11965;53.640;10.050;2024-03-23T08:45:49;100285.03;;;8.93;96.54
23574;BME280;11965;53.640;10.050;2024-03-23T08:48:18;100290.41;;;8.79;97.38
23574;BME280;11965;53.640;10.050;2024-03-23T08:50:46;100287.44;;;8.59;95.59
23574;BME280;11965;53.640;10.050;2024-03-23T08:53:13;100284.03;;;8.57;95.86
23574;BME280;11965;53.640;10.050;2024-03-23T08:55:39;100283.22;;;8.63;94.58
23574;BME280;11965;53.640;10.050;2024-03-23T08:58:07;100276.19;;;8.82;97.53
23574;BME280;11965;53.640;10.050;2024-03-23T09:00:34;100277.41;;;8.73;93.05
23574;BME280;11965;53.640;10.050;2024-03-23T09:03:01;100265.00;;;8.69;93.76
23574;BME280;11965;53.640;10.050;2024-03-23T09:05:28;100269.69;;;8.90;95.46
23574;BME280;11965;53.640;10.050;2024-03-23T09:08:00;100265.28;;;8.96;90.21
23574;BME280;11965;53.640;10.050;2024-03-23T09:10:26;100258.72;;;9.25;87.41
23574;BME280;11965;53.640;10.050;2024-03-23T09:12:53;100251.31;;;9.60;86.13
23574;BME280;11965;53.640;10.050;2024-03-23T09:15:21;100255.78;;;9.96;82.21
23574;BME280;11965;53.640;10.050;2024-03-23T09:17:47;100261.84;;;10.20;83.02
23574;BME280;11965;53.640;10.050;2024-03-23T09:20:14;100257.50;;;9.97;80.97
23574;BME280;11965;53.640;10.050;2024-03-23T09:22:40;100255.88;;;9.74;77.25
23574;BME280;11965;53.640;10.050;2024-03-23T09:25:08;100262.28;;;9.47;75.71
23574;BME280;11965;53.640;10.050;2024-03-23T09:27:34;100264.69;;;9.28;75.72
23574;BME280;11965;53.640;10.050;2024-03-23T09:30:01;100264.44;;;8.95;78.88
23574;BME280;11965;53.640;10.050;2024-03-23T09:32:28;100257.38;;;8.93;80.91
23574;BME280;11965;53.640;10.050;2024-03-23T09:34:55;100266.09;;;8.90;82.58
23574;BME280;11965;53.640;10.050;2024-03-23T09:37:21;100262.44;;;8.89;83.84
23574;BME280;11965;53.640;10.050;2024-03-23T09:39:48;100258.50;;;9.26;84.66
23574;BME280;11965;53.640;10.050;2024-03-23T09:42:14;100255.16;;;9.31;82.58
23574;BME280;11965;53.640;10.050;2024-03-23T09:44:41;100247.63;;;9.53;77.50
23574;BME280;11965;53.640;10.050;2024-03-23T09:47:08;100257.38;;;9.77;76.84
23574;BME280;11965;53.640;10.050;2024-03-23T09:49:37;100248.00;;;10.20;80.47
23574;BME280;11965;53.640;10.050;2024-03-23T09:52:04;100242.47;;;10.20;73.32
23574;BME280;11965;53.640;10.050;2024-03-23T09:54:31;100234.56;;;10.16;70.35
23574;BME280;11965;53.640;10.050;2024-03-23T09:56:58;100238.34;;;10.02;73.20
23574;BME280;11965;53.640;10.050;2024-03-23T10:00:06;100226.53;;;10.28;70.41
23574;BME280;11965;53.640;10.050;2024-03-23T10:02:34;100230.13;;;10.22;69.12
23574;BME280;11965;53.640;10.050;2024-03-23T10:05:02;100227.66;;;9.99;71.22
23574;BME280;11965;53.640;10.050;2024-03-23T10:07:29;100240.16;;;9.82;70.05
23574;BME280;11965;53.640;10.050;2024-03-23T10:09:55;100252.47;;;9.44;72.88
23574;BME280;11965;53.640;10.050;2024-03-23T10:12:23;100239.28;;;9.12;79.28
23574;BME280;11965;53.640;10.050;2024-03-23T10:14:50;100247.44;;;9.26;76.44
23574;BME280;11965;53.640;10.050;2024-03-23T10:17:18;100228.69;;;9.50;75.70
23574;BME280;11965;53.640;10.050;2024-03-23T10:19:45;100231.00;;;9.81;73.90
23574;BME280;11965;53.640;10.050;2024-03-23T10:22:17;100223.81;;;9.93;76.84
23574;BME280;11965;53.640;10.050;2024-03-23T10:24:43;100217.97;;;10.16;72.50
23574;BME280;11965;53.640;10.050;2024-03-23T10:27:15;100217.81;;;10.31;73.48
23574;BME280;11965;53.640;10.050;2024-03-23T10:29:41;100208.69;;;10.44;72.53
23574;BME280;11965;53.640;10.050;2024-03-23T10:32:08;100216.84;;;10.72;70.82
23574;BME280;11965;53.640;10.050;2024-03-23T10:34:35;100208.31;;;11.00;71.10
23574;BME280;11965;53.640;10.050;2024-03-23T10:37:03;100202.78;;;11.20;69.71
23574;BME280;11965;53.640;10.050;2024-03-23T10:39:33;100194.47;;;10.87;64.51
23574;BME280;11965;53.640;10.050;2024-03-23T10:42:03;100189.97;;;11.26;66.65
23574;BME280;11965;53.640;10.050;2024-03-23T10:44:30;100195.09;;;11.09;68.62
23574;BME280;11965;53.640;10.050;2024-03-23T10:46:58;100200.00;;;10.67;66.92
23574;BME280;11965;53.640;10.050;2024-03-23T10:49:28;100197.91;;;10.14;65.53
23574;BME280;11965;53.640;10.050;2024-03-23T10:51:57;100213.56;;;9.87;63.05
23574;BME280;11965;53.640;10.050;2024-03-23T10:54:24;100204.19;;;9.47;64.37
23574;BME280;11965;53.640;10.050;2024-03-23T10:56:57;100205.88;;;9.41;66.37
23574;BME280;11965;53.640;10.050;2024-03-23T10:59:26;100197.66;;;9.55;66.07
23574;BME280;11965;53.640;10.050;2024-03-23T11:01:55;100188.19;;;9.77;66.66
23574;BME280;11965;53.640;10.050;2024-03-23T11:04:29;100188.47;;;9.95;64.31
23574;BME280;11965;53.640;10.050;2024-03-23T11:06:57;100183.38;;;9.99;64.29
23574;BME280;11965;53.640;10.050;2024-03-23T11:09:39;100185.16;;;10.13;64.67
23574;BME280;11965;53.640;10.050;2024-03-23T11:12:27;100178.78;;;10.20;62.47
23574;BME280;11965;53.640;10.050;2024-03-23T11:14:56;100185.53;;;10.04;58.74
23574;BME280;11965;53.640;10.050;2024-03-23T11:17:27;100180.72;;;9.78;61.48
23574;BME280;11965;53.640;10.050;2024-03-23T11:19:54;100176.94;;;9.44;62.12
23574;BME280;11965;53.640;10.050;2024-03-23T11:22:42;100181.50;;;9.23;66.74
23574;BME280;11965;53.640;10.050;2024-03-23T11:25:19;100188.84;;;9.38;64.41
23574;BME280;11965;53.640;10.050;2024-03-23T11:27:50;100193.31;;;9.39;68.79
23574;BME280;11965;53.640;10.050;2024-03-23T11:30:18;100176.69;;;9.04;68.70
23574;BME280;11965;53.640;10.050;2024-03-23T11:32:46;100181.56;;;9.02;71.85
23574;BME280;11965;53.640;10.050;2024-03-23T11:35:26;100191.16;;;9.06;71.47
23574;BME280;11965;53.640;10.050;2024-03-23T11:38:09;100188.09;;;9.22;71.12
23574;BME280;11965;53.640;10.050;2024-03-23T11:40:36;100189.19;;;9.00;70.57
23574;BME280;11965;53.640;10.050;2024-03-23T11:43:07;100182.06;;;8.84;71.82
23574;BME280;11965;53.640;10.050;2024-03-23T11:45:38;100184.75;;;8.77;77.54
23574;BME280;11965;53.640;10.050;2024-03-23T11:48:07;100177.25;;;8.93;75.33
23574;BME280;11965;53.640;10.050;2024-03-23T11:50:38;100174.16;;;9.09;74.26
23574;BME280;11965;53.640;10.050;2024-03-23T11:53:13;100170.19;;;9.18;74.12
23574;BME280;11965;53.640;10.050;2024-03-23T11:55:43;100167.97;;;9.07;73.18
23574;BME280;11965;53.640;10.050;2024-03-23T11:58:12;100166.84;;;8.95;73.51
23574;BME280;11965;53.640;10.050;2024-03-23T12:00:39;100208.22;;;8.88;74.50
23574;BME280;11965;53.640;10.050;2024-03-23T12:03:07;100216.03;;;8.20;76.56
23574;BME280;11965;53.640;10.050;2024-03-23T12:05:34;100231.81;;;7.45;87.79
23574;BME280;11965;53.640;10.050;2024-03-23T12:08:17;100221.03;;;6.45;98.82
23574;BME280;11965;53.640;10.050;2024-03-23T12:10:44;100240.22;;;5.99;99.81
23574;BME280;11965;53.640;10.050;2024-03-23T12:13:16;100251.47;;;5.81;100.00
23574;BME280;11965;53.640;10.050;2024-03-23T12:15:43;100224.50;;;5.76;100.00
23574;BME280;11965;53.640;10.050;2024-03-23T12:18:11;100220.97;;;5.91;99.81
23574;BME280;11965;53.640;10.050;2024-03-23T12:20:37;100223.38;;;6.02;99.37
23574;BME280;11965;53.640;10.050;2024-03-23T12:23:09;100220.69;;;6.17;100.00
23574;BME280;11965;53.640;10.050;2024-03-23T12:25:38;100213.25;;;6.26;100.00
23574;BME280;11965;53.640;10.050;2024-03-23T12:28:05;100212.88;;;6.52;100.00
23574;BME280;11965;53.640;10.050;2024-03-23T12:30:35;100208.84;;;6.85;100.00
23574;BME280;11965;53.640;10.050;2024-03-23T12:33:03;100213.34;;;7.46;100.00
23574;BME280;11965;53.640;10.050;2024-03-23T12:35:29;100210.91;;;7.66;94.27
23574;BME280;11965;53.640;10.050;2024-03-23T12:37:56;100212.09;;;7.78;94.00
23574;BME280;11965;53.640;10.050;2024-03-23T12:40:22;100223.88;;;8.02;92.97
23574;BME280;11965;53.640;10.050;2024-03-23T12:42:49;100225.50;;;7.96;93.26
23574;BME280;11965;53.640;10.050;2024-03-23T12:45:15;100231.72;;;7.68;95.26
23574;BME280;11965;53.640;10.050;2024-03-23T12:47:43;100240.72;;;7.33;89.38
23574;BME280;11965;53.640;10.050;2024-03-23T12:50:10;100257.25;;;7.18;92.10
23574;BME280;11965;53.640;10.050;2024-03-23T12:52:37;100267.97;;;7.13;94.63
23574;BME280;11965;53.640;10.050;2024-03-23T12:55:04;100265.25;;;6.90;94.94
23574;BME280;11965;53.640;10.050;2024-03-23T12:57:32;100233.50;;;6.33;93.16
23574;BME280;11965;53.640;10.050;2024-03-23T12:59:58;100232.16;;;6.29;98.97
23574;BME280;11965;53.640;10.050;2024-03-23T13:02:26;100228.47;;;6.36;96.78
23574;BME280;11965;53.640;10.050;2024-03-23T13:04:53;100226.19;;;6.48;97.13
23574;BME280;11965;53.640;10.050;2024-03-23T13:07:22;100232.03;;;6.68;93.27
23574;BME280;11965;53.640;10.050;2024-03-23T13:09:50;100221.38;;;6.88;95.36
23574;BME280;11965;53.640;10.050;2024-03-23T13:12:17;100232.56;;;6.86;93.98
23574;BME280;11965;53.640;10.050;2024-03-23T13:14:44;100235.94;;;6.97;93.11
23574;BME280;11965;53.640;10.050;2024-03-23T13:17:11;100233.56;;;7.08;92.92
23574;BME280;11965;53.640;10.050;2024-03-23T13:19:37;100230.50;;;7.03;92.40
23574;BME280;11965;53.640;10.050;2024-03-23T13:22:06;100227.66;;;7.12;93.48
23574;BME280;11965;53.640;10.050;2024-03-23T13:24:32;100224.06;;;7.11;94.33
23574;BME280;11965;53.640;10.050;2024-03-23T13:26:59;100225.72;;;7.35;89.88
23574;BME280;11965;53.640;10.050;2024-03-23T13:29:25;100221.84;;;7.44;93.58
23574;BME280;11965;53.640;10.050;2024-03-23T13:31:52;100237.06;;;7.55;96.78
23574;BME280;11965;53.640;10.050;2024-03-23T13:34:19;100237.78;;;7.49;89.26
23574;BME280;11965;53.640;10.050;2024-03-23T13:36:47;100241.97;;;7.60;91.68
23574;BME280;11965;53.640;10.050;2024-03-23T13:39:15;100241.81;;;7.61;91.93